createdAt,value
2019-04-28T00:02:40.735Z,65.70
2019-04-28T00:05:09.390Z,56.87
2019-04-28T00:07:38.383Z,59.10
2019-04-28T00:13:22.450Z,49.50
2019-04-28T00:19:08.641Z,46.27
2019-04-28T00:24:53.827Z,50.17
2019-04-28T00:30:38.124Z,67.43
2019-04-28T00:36:23.011Z,56.40
2019-04-28T00:42:07.285Z,57.30
2019-04-28T00:47:51.094Z,51.30
2019-04-28T00:50:21.657Z,50.50
2019-04-28T00:56:06.341Z,63.00
2019-04-28T01:01:52.355Z,48.57
2019-04-28T01:07:37.854Z,56.10
2019-04-28T01:10:06.402Z,53.23
2019-04-28T01:12:36.083Z,54.53
2019-04-28T01:15:06.372Z,45.47
2019-04-28T01:17:39.653Z,52.83
2019-04-28T01:20:09.815Z,63.93
2019-04-28T01:25:54.283Z,63.40
2019-04-28T01:31:39.717Z,62.17
2019-04-28T01:37:35.409Z,62.80
2019-04-28T01:43:19.961Z,57.73
2019-04-28T01:49:04.284Z,41.37
2019-04-28T01:54:50.168Z,64.77
2019-04-28T01:57:21.334Z,56.37
2019-04-28T02:02:53.483Z,56.90
2019-04-28T02:08:39.852Z,61.27
2019-04-28T02:11:10.071Z,56.97
2019-04-28T02:16:54.781Z,53.00
2019-04-28T02:22:41.681Z,68.90
2019-04-28T02:28:26.658Z,55.20
2019-04-28T02:30:54.894Z,49.60
2019-04-28T02:36:40.712Z,52.83
2019-04-28T02:39:10.678Z,43.53
2019-04-28T02:41:41.137Z,52.17
2019-04-28T02:47:26.203Z,56.97
2019-04-28T02:53:12.537Z,44.90
2019-04-28T02:58:57.509Z,42.40
2019-04-28T03:04:42.381Z,39.47
2019-04-28T03:10:27.691Z,35.27
2019-04-28T03:16:12.271Z,32.00
2019-04-28T03:21:56.889Z,42.33
2019-04-28T03:27:43.320Z,38.50
2019-04-28T03:33:34.426Z,40.33
2019-04-28T03:36:03.697Z,43.07
2019-04-28T03:38:31.028Z,34.90
2019-04-28T03:44:15.281Z,34.13
2019-04-28T03:50:00.080Z,44.30
2019-04-28T03:55:45.211Z,46.30
2019-04-28T03:58:13.452Z,36.93
2019-04-28T04:03:58.152Z,35.97
2019-04-28T04:09:44.566Z,33.50
2019-04-28T04:15:30.911Z,33.27
2019-04-28T04:21:15.360Z,35.07
2019-04-28T04:27:00.928Z,37.53
2019-04-28T04:32:45.612Z,42.53
2019-04-28T04:38:31.240Z,46.00
2019-04-28T04:44:27.570Z,35.20
2019-04-28T04:46:55.852Z,37.87
2019-04-28T04:52:40.497Z,51.57
2019-04-28T04:55:11.144Z,49.40
2019-04-28T04:57:40.833Z,39.47
2019-04-28T05:00:10.844Z,40.83
2019-04-28T05:05:54.243Z,42.13
2019-04-28T05:08:22.583Z,41.70
2019-04-28T05:10:50.773Z,48.87
2019-04-28T05:16:35.101Z,43.77
2019-04-28T05:19:03.522Z,30.23
2019-04-28T05:24:51.142Z,35.60
2019-04-28T05:27:22.161Z,27.63
2019-04-28T05:33:05.261Z,33.07
2019-04-28T05:38:50.285Z,28.37
2019-04-28T05:44:37.462Z,30.77
2019-04-28T05:50:23.603Z,48.27
2019-04-28T05:52:53.587Z,48.60
2019-04-28T05:55:23.623Z,79.90
2019-04-28T05:57:53.559Z,157.07
2019-04-28T06:03:37.834Z,291.07
2019-04-28T06:09:23.734Z,281.30
2019-04-28T06:11:55.689Z,288.50
2019-04-28T06:14:24.852Z,126.33
2019-04-28T06:20:11.418Z,203.13
2019-04-28T06:25:55.611Z,34.00
2019-04-28T06:28:23.996Z,43.07
2019-04-28T06:34:07.926Z,47.23
2019-04-28T06:39:52.229Z,44.27
2019-04-28T06:42:20.607Z,40.30
2019-04-28T06:44:50.047Z,48.47
2019-04-28T06:47:19.443Z,36.97
2019-04-28T06:49:47.701Z,32.13
2019-04-28T06:52:15.995Z,40.63
2019-04-28T06:54:44.445Z,53.00
2019-04-28T06:57:13.798Z,47.37
2019-04-28T06:59:42.121Z,46.33
2019-04-28T07:02:10.361Z,41.73
2019-04-28T07:04:38.678Z,272.57
2019-04-28T07:07:06.946Z,165.73
2019-04-28T07:09:35.372Z,261.47
2019-04-28T07:12:03.787Z,252.00
2019-04-28T07:14:32.073Z,110.03
2019-04-28T07:17:00.441Z,194.73
2019-04-28T07:19:29.055Z,171.93
2019-04-28T07:21:58.958Z,119.87
2019-04-28T07:24:27.091Z,109.80
2019-04-28T07:30:00.669Z,62.53
2019-04-28T07:35:45.803Z,169.33
2019-04-28T07:38:14.169Z,249.50
2019-04-28T07:40:42.444Z,41.37
2019-04-28T07:46:26.704Z,37.27
2019-04-28T07:48:55.371Z,39.00
2019-04-28T07:54:40.269Z,46.57
2019-04-28T07:57:08.541Z,39.93
2019-04-28T08:02:53.329Z,40.60
2019-04-28T08:08:26.003Z,39.03
2019-04-28T08:10:54.407Z,52.27
2019-04-28T08:13:23.864Z,43.40
2019-04-28T08:19:07.589Z,31.43
2019-04-28T08:21:35.941Z,34.20
2019-04-28T08:24:04.436Z,25.80
2019-04-28T08:29:37.262Z,33.53
2019-04-28T08:35:21.095Z,25.13
2019-04-28T08:37:49.484Z,31.03
2019-04-28T08:43:33.782Z,26.80
2019-04-28T08:46:01.941Z,22.90
2019-04-28T08:48:30.425Z,29.40
2019-04-28T08:54:15.040Z,25.77
2019-04-28T08:59:59.852Z,23.63
2019-04-28T09:02:28.255Z,33.33
2019-04-28T09:08:00.814Z,25.50
2019-04-28T09:13:45.639Z,32.70
2019-04-28T09:19:30.326Z,20.40
2019-04-28T09:25:15.094Z,27.10
2019-04-28T09:31:00.873Z,33.87
2019-04-28T09:33:29.174Z,21.67
2019-04-28T09:35:57.589Z,26.63
2019-04-28T09:41:42.736Z,35.97
2019-04-28T09:47:16.019Z,53.07
2019-04-28T09:49:44.362Z,53.80
2019-04-28T09:55:28.162Z,38.77
2019-04-28T10:01:12.603Z,94.90
2019-04-28T10:06:45.395Z,50.40
2019-04-28T10:09:14.052Z,66.23
2019-04-28T10:14:58.994Z,54.13
2019-04-28T10:17:27.469Z,45.20
2019-04-28T10:19:55.842Z,40.87
2019-04-28T10:22:25.080Z,47.27
2019-04-28T10:24:53.474Z,54.10
2019-04-28T10:27:22.442Z,48.83
2019-04-28T10:33:06.973Z,37.47
2019-04-28T10:35:35.269Z,33.13
2019-04-28T10:41:10.331Z,39.40
2019-04-28T10:46:54.755Z,29.93
2019-04-28T10:52:52.281Z,42.47
2019-04-28T10:58:37.024Z,37.00
2019-04-28T11:01:06.309Z,31.10
2019-04-28T11:03:34.822Z,38.47
2019-04-28T11:06:03.151Z,39.00
2019-04-28T11:11:36.471Z,159.43
2019-04-28T11:17:22.013Z,110.47
2019-04-28T11:19:50.461Z,48.20
2019-04-28T11:25:34.786Z,39.50
2019-04-28T11:28:03.208Z,44.33
2019-04-28T11:30:31.688Z,28.37
2019-04-28T11:36:17.849Z,31.20
2019-04-28T11:38:46.185Z,36.37
2019-04-28T11:44:30.772Z,30.57
2019-04-28T11:46:59.098Z,30.60
2019-04-28T11:52:31.520Z,37.80
2019-04-28T11:58:15.961Z,26.30
2019-04-28T12:04:02.174Z,20.57
2019-04-28T12:09:48.754Z,31.37
2019-04-28T12:12:18.765Z,31.27
2019-04-28T12:18:11.627Z,27.00
2019-04-28T12:23:44.546Z,28.83
2019-04-28T12:29:28.587Z,34.90
2019-04-28T12:31:57.309Z,19.47
2019-04-28T12:37:42.288Z,32.60
2019-04-28T12:43:26.634Z,23.23
2019-04-28T12:49:13.227Z,24.00
2019-04-28T12:51:41.577Z,22.43
2019-04-28T12:54:11.514Z,21.13
2019-04-28T12:56:39.928Z,29.70
2019-04-28T12:59:09.913Z,21.27
2019-04-28T13:01:39.930Z,29.30
2019-04-28T13:04:09.903Z,26.00
2019-04-28T13:09:51.634Z,35.87
2019-04-28T13:15:24.941Z,35.57
2019-04-28T13:17:53.485Z,36.73
2019-04-28T13:20:21.911Z,27.83
2019-04-28T13:26:06.102Z,32.90
2019-04-28T13:28:34.515Z,37.33
2019-04-28T13:31:03.025Z,30.47
2019-04-28T13:33:31.280Z,32.40
2019-04-28T13:35:59.681Z,26.43
2019-04-28T13:38:27.978Z,26.03
2019-04-28T13:40:56.401Z,26.77
2019-04-28T13:43:24.749Z,20.00
2019-04-28T13:45:52.992Z,34.33
2019-04-28T13:51:49.047Z,34.43
2019-04-28T13:57:33.194Z,29.73
2019-04-28T14:00:03.154Z,27.63
2019-04-28T14:02:31.281Z,26.53
2019-04-28T14:05:01.261Z,22.63
2019-04-28T14:07:29.827Z,18.00
2019-04-28T14:13:02.276Z,31.23
2019-04-28T14:18:34.938Z,25.30
2019-04-28T14:24:19.913Z,37.83
2019-04-28T14:26:56.867Z,44.30
2019-04-28T14:32:42.302Z,39.53
2019-04-28T14:35:10.994Z,33.13
2019-04-28T14:37:39.278Z,45.03
2019-04-28T14:40:07.654Z,38.60
2019-04-28T14:42:35.935Z,29.13
2019-04-28T14:45:05.653Z,40.03
2019-04-28T14:47:36.260Z,29.17
2019-04-28T14:50:12.145Z,33.53
2019-04-28T14:55:58.845Z,27.70
2019-04-28T15:01:44.801Z,33.53
2019-04-28T15:07:33.299Z,36.43
2019-04-28T15:13:08.694Z,40.23
2019-04-28T15:15:37.097Z,30.00
2019-04-28T15:21:10.173Z,29.67
2019-04-28T15:26:53.637Z,27.43
2019-04-28T15:32:50.326Z,53.37
2019-04-28T15:38:35.586Z,51.27
2019-04-28T15:44:19.699Z,37.83
2019-04-28T15:50:04.876Z,24.23
2019-04-28T15:55:50.453Z,33.03
2019-04-28T15:58:20.398Z,34.90
2019-04-28T16:00:48.762Z,31.47
2019-04-28T16:06:34.327Z,40.00
2019-04-28T16:12:19.763Z,35.90
2019-04-28T16:18:05.020Z,26.17
2019-04-28T16:20:33.322Z,37.30
2019-04-28T16:26:05.673Z,24.53
2019-04-28T16:28:33.921Z,41.03
2019-04-28T16:31:02.309Z,35.93
2019-04-28T16:33:30.694Z,42.30
2019-04-28T16:36:00.269Z,50.53
2019-04-28T16:38:28.571Z,38.10
2019-04-28T16:40:56.886Z,27.17
2019-04-28T16:43:25.534Z,41.93
2019-04-28T16:45:53.999Z,45.90
2019-04-28T16:48:22.375Z,42.27
2019-04-28T16:50:50.694Z,32.50
2019-04-28T16:53:19.161Z,35.03
2019-04-28T16:55:47.241Z,37.13
2019-04-28T16:58:17.274Z,35.60
2019-04-28T17:00:47.274Z,35.23
2019-04-28T17:03:15.886Z,33.63
2019-04-28T17:05:44.429Z,40.40
2019-04-28T17:08:12.801Z,39.13
2019-04-28T17:10:41.054Z,37.57
2019-04-28T17:13:09.608Z,44.10
2019-04-28T17:15:38.173Z,29.47
2019-04-28T17:18:06.622Z,41.30
2019-04-28T17:20:35.009Z,30.63
2019-04-28T17:23:03.341Z,41.23
2019-04-28T17:25:31.772Z,41.13
2019-04-28T17:28:00.238Z,34.47
2019-04-28T17:30:28.755Z,33.50
2019-04-28T17:32:57.226Z,27.37
2019-04-28T17:35:25.721Z,34.07
2019-04-28T17:38:05.987Z,28.97
2019-04-28T17:40:24.593Z,29.20
2019-04-28T17:42:52.933Z,33.53
2019-04-28T17:45:21.921Z,38.80
2019-04-28T17:47:51.973Z,42.90
2019-04-28T17:50:21.811Z,41.03
2019-04-28T17:52:49.974Z,41.27
2019-04-28T17:55:18.382Z,45.33
2019-04-28T17:57:46.793Z,40.80
2019-04-28T18:00:16.779Z,41.57
2019-04-28T18:02:46.691Z,41.63
2019-04-28T18:05:16.685Z,39.83
2019-04-28T18:07:45.689Z,41.37
2019-04-28T18:10:14.133Z,45.10
2019-04-28T18:12:42.498Z,44.50
2019-04-28T18:15:12.569Z,42.90
2019-04-28T18:17:42.578Z,40.33
2019-04-28T18:20:11.394Z,40.33
2019-04-28T18:22:39.921Z,45.77
2019-04-28T18:25:08.554Z,41.47
2019-04-28T18:27:37.033Z,40.23
2019-04-28T18:30:06.938Z,33.37
2019-04-28T18:32:38.113Z,45.13
2019-04-28T18:35:08.154Z,47.90
2019-04-28T18:37:38.208Z,43.90
2019-04-28T18:40:08.614Z,35.33
2019-04-28T18:42:38.895Z,45.17
2019-04-28T18:45:08.262Z,35.10
2019-04-28T18:47:36.594Z,49.47
2019-04-28T18:50:06.109Z,44.67
2019-04-28T18:52:34.553Z,46.77
2019-04-28T18:55:03.174Z,49.47
2019-04-28T18:57:31.578Z,50.93
2019-04-28T19:00:00.033Z,45.87
2019-04-28T19:02:29.922Z,43.50
2019-04-28T19:04:58.257Z,33.23
2019-04-28T19:07:28.210Z,43.40
2019-04-28T19:09:58.221Z,42.30
2019-04-28T19:12:28.149Z,39.80
2019-04-28T19:14:58.199Z,40.23
2019-04-28T19:17:28.182Z,40.13
2019-04-28T19:19:56.543Z,45.60
2019-04-28T19:22:25.082Z,36.77
2019-04-28T19:24:53.657Z,40.90
2019-04-28T19:27:22.076Z,40.40
2019-04-28T19:29:50.393Z,45.00
2019-04-28T19:32:18.849Z,38.37
2019-04-28T19:34:47.285Z,38.13
2019-04-28T19:37:15.806Z,38.80
2019-04-28T19:39:44.288Z,52.47
2019-04-28T19:42:12.634Z,48.93
2019-04-28T19:44:41.013Z,43.03
2019-04-28T19:47:09.566Z,45.80
2019-04-28T19:49:38.038Z,50.70
2019-04-28T19:52:07.670Z,45.73
2019-04-28T19:54:37.642Z,44.20
2019-04-28T19:57:07.861Z,45.63
2019-04-28T19:59:38.079Z,36.43
2019-04-28T20:02:06.496Z,40.13
2019-04-28T20:04:34.808Z,46.93
2019-04-28T20:07:03.173Z,54.90
2019-04-28T20:09:31.499Z,42.47
2019-04-28T20:11:59.990Z,54.57
2019-04-28T20:14:28.336Z,38.10
2019-04-28T20:16:56.849Z,46.77
2019-04-28T20:19:25.529Z,44.10
2019-04-28T20:21:53.973Z,44.00
2019-04-28T20:24:22.591Z,39.70
2019-04-28T20:26:51.000Z,46.90
2019-04-28T20:29:19.305Z,39.53
2019-04-28T20:31:47.643Z,49.67
2019-04-28T20:34:16.106Z,41.93
2019-04-28T20:36:46.125Z,43.47
2019-04-28T20:39:16.155Z,40.60
2019-04-28T20:41:46.161Z,40.20
2019-04-28T20:44:14.429Z,38.33
2019-04-28T20:46:42.636Z,45.63
2019-04-28T20:49:11.009Z,40.90
2019-04-28T20:51:39.434Z,35.47
2019-04-28T20:54:07.847Z,32.60
2019-04-28T20:56:36.237Z,43.80
2019-04-28T20:59:04.617Z,32.83
2019-04-28T21:01:32.997Z,41.53
2019-04-28T21:04:02.601Z,39.83
2019-04-28T21:06:31.196Z,35.83
2019-04-28T21:08:59.494Z,35.87
2019-04-28T21:11:29.519Z,46.80
2019-04-28T21:13:57.774Z,43.73
2019-04-28T21:16:26.150Z,40.80
2019-04-28T21:18:54.523Z,37.07
2019-04-28T21:21:22.883Z,38.23
2019-04-28T21:23:51.204Z,50.63
2019-04-28T21:26:19.551Z,38.63
2019-04-28T21:28:48.941Z,48.27
2019-04-28T21:31:17.354Z,40.33
2019-04-28T21:33:45.962Z,48.63
2019-04-28T21:36:14.414Z,37.00
2019-04-28T21:38:42.621Z,56.00
2019-04-28T21:41:12.578Z,42.07
2019-04-28T21:43:42.474Z,46.57
2019-04-28T21:46:12.438Z,39.43
2019-04-28T21:48:42.473Z,45.63
2019-04-28T21:51:12.106Z,40.00
2019-04-28T21:53:40.848Z,43.73
2019-04-28T21:56:09.246Z,47.63
2019-04-28T21:58:37.650Z,44.90
2019-04-28T22:01:07.221Z,45.50
2019-04-28T22:03:37.203Z,50.97
2019-04-28T22:06:05.609Z,44.87
2019-04-28T22:08:34.108Z,46.30
2019-04-28T22:11:02.497Z,38.60
2019-04-28T22:13:30.898Z,45.80
2019-04-28T22:15:59.354Z,44.07
2019-04-28T22:18:27.607Z,44.77
2019-04-28T22:20:56.109Z,38.53
2019-04-28T22:23:26.007Z,45.53
2019-04-28T22:25:54.285Z,38.93
2019-04-28T22:28:24.013Z,41.77
2019-04-28T22:30:52.382Z,37.10
2019-04-28T22:33:20.577Z,39.43
2019-04-28T22:35:50.258Z,48.83
2019-04-28T22:38:18.536Z,47.77
2019-04-28T22:40:46.992Z,39.73
2019-04-28T22:43:15.421Z,42.40
2019-04-28T22:45:43.921Z,43.90
2019-04-28T22:48:13.940Z,41.47
2019-04-28T22:50:43.302Z,44.90
2019-04-28T22:53:11.986Z,34.87
2019-04-28T22:55:41.932Z,38.77
2019-04-28T22:58:11.875Z,45.27
2019-04-28T23:00:39.988Z,46.00
2019-04-28T23:03:11.553Z,47.60
2019-04-28T23:05:41.134Z,46.83
2019-04-28T23:08:09.434Z,46.20
2019-04-28T23:10:38.954Z,45.17
2019-04-28T23:13:07.361Z,43.50
2019-04-28T23:15:36.008Z,41.77
2019-04-28T23:18:04.612Z,35.20
2019-04-28T23:20:34.561Z,40.43
2019-04-28T23:23:04.553Z,39.73
2019-04-28T23:25:32.916Z,41.53
2019-04-28T23:28:01.389Z,46.80
2019-04-28T23:30:31.216Z,40.10
2019-04-28T23:32:59.527Z,37.93
2019-04-28T23:35:27.882Z,38.93
2019-04-28T23:37:56.450Z,48.80
2019-04-28T23:40:24.743Z,42.90
2019-04-28T23:42:54.713Z,41.90
2019-04-28T23:45:23.134Z,38.80
2019-04-28T23:47:51.381Z,46.40
2019-04-28T23:50:21.361Z,46.87
2019-04-28T23:52:51.226Z,58.70
2019-04-28T23:55:20.421Z,53.87
2019-04-28T23:57:48.800Z,49.37
